createdAt,value
2018-02-12T00:00:13.681Z,70.54
2018-02-12T00:01:14.149Z,70.33
2018-02-12T00:02:14.618Z,70.14
2018-02-12T00:03:15.136Z,70.03
2018-02-12T00:04:15.552Z,69.83
2018-02-12T00:05:16.019Z,69.71
2018-02-12T00:06:16.487Z,69.53
2018-02-12T00:07:16.956Z,69.40
2018-02-12T00:08:17.419Z,69.27
2018-02-12T00:09:17.891Z,69.22
2018-02-12T00:10:18.358Z,69.07
2018-02-12T00:11:18.824Z,68.94
2018-02-12T00:12:19.292Z,68.91
2018-02-12T00:13:19.810Z,68.91
2018-02-12T00:14:20.230Z,68.83
2018-02-12T00:15:20.693Z,68.73
2018-02-12T00:16:21.163Z,68.63
2018-02-12T00:17:21.629Z,68.55
2018-02-12T00:19:22.561Z,68.39
2018-02-12T00:20:23.032Z,68.29
2018-02-12T00:21:23.498Z,68.21
2018-02-12T00:22:23.969Z,68.13
2018-02-12T00:23:36.373Z,68.11
2018-02-12T00:24:24.903Z,68.00
2018-02-12T00:25:25.368Z,67.98
2018-02-12T00:26:25.831Z,68.00
2018-02-12T00:27:26.304Z,68.02
2018-02-12T00:28:38.406Z,68.12
2018-02-12T00:30:27.702Z,68.35
2018-02-12T00:31:28.177Z,68.25
2018-02-12T00:32:28.642Z,68.22
2018-02-12T00:33:29.108Z,68.22
2018-02-12T00:34:29.574Z,68.22
2018-02-12T00:35:30.043Z,68.27
2018-02-12T00:36:30.511Z,68.24
2018-02-12T00:37:30.972Z,68.26
2018-02-12T00:38:31.445Z,68.21
2018-02-12T00:40:32.379Z,68.11
2018-02-12T00:41:32.845Z,68.00
2018-02-12T00:43:45.418Z,67.74
2018-02-12T00:44:34.248Z,67.67
2018-02-12T00:45:34.714Z,67.64
2018-02-12T00:46:35.181Z,67.64
2018-02-12T00:47:35.649Z,67.66
2018-02-12T00:48:36.112Z,67.64
2018-02-12T00:49:36.583Z,67.73
2018-02-12T00:50:37.050Z,67.71
2018-02-12T00:51:37.517Z,67.76
2018-02-12T00:52:37.987Z,67.76
2018-02-12T00:54:38.920Z,67.80
2018-02-12T00:55:39.388Z,67.98
2018-02-12T00:57:40.321Z,68.13
2018-02-12T00:58:40.788Z,68.13
2018-02-12T00:59:41.251Z,68.08
2018-02-12T01:00:41.723Z,68.15
2018-02-12T01:01:42.190Z,68.10
2018-02-12T01:02:42.656Z,68.10
2018-02-12T01:03:43.175Z,68.07
2018-02-12T01:04:43.591Z,68.07
2018-02-12T01:05:44.058Z,68.22
2018-02-12T01:06:44.524Z,68.35
2018-02-12T01:07:44.992Z,68.40
2018-02-12T01:09:45.925Z,68.90
2018-02-12T01:10:46.387Z,69.05
2018-02-12T01:11:46.860Z,69.02
2018-02-12T01:12:47.328Z,69.05
2018-02-12T01:13:47.845Z,69.18
2018-02-12T01:14:48.261Z,69.30
2018-02-12T01:15:48.728Z,69.32
2018-02-12T01:16:49.196Z,69.32
2018-02-12T01:17:49.659Z,69.62
2018-02-12T01:19:50.596Z,69.57
2018-02-12T01:20:51.064Z,69.35
2018-02-12T01:21:51.525Z,69.24
2018-02-12T01:22:51.996Z,69.29
2018-02-12T01:23:52.465Z,69.39
2018-02-12T01:24:52.931Z,69.49
2018-02-12T01:25:53.399Z,69.37
2018-02-12T01:26:53.866Z,69.29
2018-02-12T01:27:54.331Z,69.26
2018-02-12T01:28:54.794Z,69.12
2018-02-12T01:29:55.266Z,69.11
2018-02-12T01:30:55.734Z,69.11
2018-02-12T01:31:56.201Z,69.09
2018-02-12T01:32:56.667Z,69.31
2018-02-12T01:33:57.133Z,69.36
2018-02-12T01:34:57.601Z,69.28
2018-02-12T01:36:58.536Z,69.20
2018-02-12T01:37:59.001Z,69.13
2018-02-12T01:38:59.521Z,69.05
2018-02-12T01:39:59.931Z,69.13
2018-02-12T01:42:00.869Z,68.95
2018-02-12T01:43:01.335Z,68.93
2018-02-12T01:44:01.800Z,69.03
2018-02-12T01:45:02.271Z,68.82
2018-02-12T01:46:02.737Z,68.77
2018-02-12T01:47:03.204Z,68.72
2018-02-12T01:48:03.673Z,68.72
2018-02-12T01:49:04.139Z,68.64
2018-02-12T01:50:04.607Z,68.56
2018-02-12T01:51:05.068Z,68.54
2018-02-12T01:52:05.537Z,68.54
2018-02-12T01:53:06.209Z,68.81
2018-02-12T01:54:06.522Z,68.69
2018-02-12T01:55:06.938Z,68.71
2018-02-12T01:56:07.407Z,68.63
2018-02-12T01:57:07.876Z,68.68
2018-02-12T01:58:08.341Z,68.73
2018-02-12T02:00:09.273Z,68.81
2018-02-12T02:01:09.742Z,68.73
2018-02-12T02:02:10.203Z,68.75
2018-02-12T02:05:11.609Z,68.57
2018-02-12T02:06:12.078Z,68.57
2018-02-12T02:07:12.542Z,68.52
2018-02-12T02:08:13.210Z,68.49
2018-02-12T02:09:13.475Z,68.37
2018-02-12T02:11:14.409Z,68.34
2018-02-12T02:12:14.877Z,68.18
2018-02-12T02:13:15.338Z,68.08
2018-02-12T02:14:15.860Z,68.33
2018-02-12T02:15:16.277Z,68.26
2018-02-12T02:16:16.742Z,68.31
2018-02-12T02:17:17.411Z,68.20
2018-02-12T02:18:17.676Z,68.13
2018-02-12T02:19:18.146Z,67.97
2018-02-12T02:20:18.605Z,68.10
2018-02-12T02:21:19.076Z,68.10
2018-02-12T02:22:19.543Z,67.99
2018-02-12T02:23:20.009Z,67.99
2018-02-12T02:24:20.523Z,67.99
2018-02-12T02:26:21.409Z,68.39
2018-02-12T02:27:21.877Z,68.19
2018-02-12T02:28:22.348Z,68.16
2018-02-12T02:29:22.812Z,68.11
2018-02-12T02:30:23.276Z,68.49
2018-02-12T02:31:23.738Z,68.36
2018-02-12T02:32:24.211Z,68.44
2018-02-12T02:33:24.678Z,68.48
2018-02-12T02:34:25.193Z,68.41
2018-02-12T02:35:25.605Z,68.28
2018-02-12T02:36:26.077Z,68.05
2018-02-12T02:37:26.543Z,68.00
2018-02-12T02:38:27.010Z,67.87
2018-02-12T02:39:27.533Z,67.77
2018-02-12T02:40:27.943Z,67.64
2018-02-12T02:41:28.410Z,67.59
2018-02-12T02:42:28.873Z,67.48
2018-02-12T02:43:29.342Z,67.46
2018-02-12T02:44:29.859Z,67.43
2018-02-12T02:45:30.275Z,67.33
2018-02-12T02:46:30.737Z,67.20
2018-02-12T02:47:31.208Z,67.22
2018-02-12T02:48:31.676Z,67.07
2018-02-12T02:50:44.496Z,66.96
2018-02-12T02:51:33.076Z,66.96
2018-02-12T02:52:33.541Z,66.91
2018-02-12T02:53:34.005Z,66.78
2018-02-12T02:54:34.474Z,66.72
2018-02-12T02:55:34.940Z,66.67
2018-02-12T02:56:35.413Z,66.70
2018-02-12T02:57:35.875Z,66.64
2018-02-12T02:58:36.340Z,66.61
2018-02-12T02:59:36.806Z,66.69
2018-02-12T03:00:37.323Z,66.66
2018-02-12T03:01:37.740Z,66.71
2018-02-12T03:02:38.208Z,66.84
2018-02-12T03:04:39.134Z,66.97
2018-02-12T03:05:39.607Z,67.07
2018-02-12T03:07:40.538Z,66.93
2018-02-12T03:08:41.005Z,66.83
2018-02-12T03:09:41.473Z,66.80
2018-02-12T03:10:41.988Z,66.85
2018-02-12T03:11:42.402Z,66.90
2018-02-12T03:12:42.872Z,67.08
2018-02-12T03:14:43.804Z,66.98
2018-02-12T03:15:44.264Z,66.95
2018-02-12T03:16:44.939Z,66.92
2018-02-12T03:18:45.676Z,66.79
2018-02-12T03:19:46.133Z,66.82
2018-02-12T03:20:46.602Z,66.61
2018-02-12T03:21:47.067Z,66.51
2018-02-12T03:22:47.531Z,66.43
2018-02-12T03:23:47.999Z,66.30
2018-02-12T03:24:48.465Z,66.27
2018-02-12T03:25:48.982Z,66.17
2018-02-12T03:26:49.392Z,66.21
2018-02-12T03:27:49.862Z,66.11
2018-02-12T03:28:50.330Z,66.16
2018-02-12T03:29:50.797Z,66.11
2018-02-12T03:32:52.194Z,66.13
2018-02-12T03:33:52.656Z,66.23
2018-02-12T03:35:53.595Z,66.25
2018-02-12T03:36:54.059Z,66.15
2018-02-12T03:37:54.519Z,66.15
2018-02-12T03:38:54.991Z,66.12
2018-02-12T03:39:55.456Z,66.12
2018-02-12T03:40:55.972Z,66.02
2018-02-12T03:41:56.387Z,66.09
2018-02-12T03:42:56.856Z,65.99
2018-02-12T03:43:57.322Z,65.96
2018-02-12T03:44:57.782Z,65.88
2018-02-12T03:45:58.253Z,65.83
2018-02-12T03:46:58.719Z,65.80
2018-02-12T03:47:59.185Z,65.75
2018-02-12T03:48:59.647Z,65.72
2018-02-12T03:50:00.117Z,65.69
2018-02-12T03:51:00.631Z,65.77
2018-02-12T03:52:01.048Z,65.82
2018-02-12T03:53:01.514Z,65.95
2018-02-12T03:55:02.445Z,65.97
2018-02-12T03:56:02.908Z,66.09
2018-02-12T03:57:03.378Z,65.99
2018-02-12T03:58:04.045Z,65.79
2018-02-12T03:59:04.309Z,65.71
2018-02-12T04:00:04.771Z,65.65
2018-02-12T04:01:16.572Z,65.57
2018-02-12T04:02:05.712Z,65.44
2018-02-12T04:04:06.640Z,65.29
2018-02-12T04:05:07.104Z,65.23
2018-02-12T04:06:07.573Z,65.26
2018-02-12T04:07:08.032Z,65.26
2018-02-12T04:08:08.506Z,65.28
2018-02-12T04:09:08.968Z,65.28
2018-02-12T04:10:09.436Z,65.20
2018-02-12T04:12:10.366Z,65.12
2018-02-12T04:13:10.833Z,65.25
2018-02-12T04:16:12.229Z,65.34
2018-02-12T04:17:12.694Z,65.39
2018-02-12T04:18:13.157Z,65.42
2018-02-12T04:19:13.624Z,65.44
2018-02-12T04:20:14.090Z,65.55
2018-02-12T04:21:14.556Z,65.57
2018-02-12T04:22:15.022Z,65.60
2018-02-12T04:23:15.487Z,65.62
2018-02-12T04:24:15.953Z,65.65
2018-02-12T04:25:16.419Z,65.85
2018-02-12T04:26:16.935Z,66.06
2018-02-12T04:28:17.814Z,66.03
2018-02-12T04:29:18.282Z,66.21
2018-02-12T04:30:18.747Z,66.26
2018-02-12T04:31:19.270Z,66.28
2018-02-12T04:32:19.674Z,66.38
2018-02-12T04:33:20.145Z,66.56
2018-02-12T04:34:20.609Z,66.51
2018-02-12T04:35:21.076Z,66.54
2018-02-12T04:36:21.536Z,66.48
2018-02-12T04:37:22.005Z,66.49
2018-02-12T04:38:22.472Z,66.56
2018-02-12T04:39:22.946Z,66.59
2018-02-12T04:40:23.404Z,66.56
2018-02-12T04:41:23.869Z,66.53
2018-02-12T04:42:24.335Z,66.56
2018-02-12T04:43:24.798Z,66.48
2018-02-12T04:44:25.266Z,66.53
2018-02-12T04:45:25.736Z,66.50
2018-02-12T04:46:26.198Z,66.43
2018-02-12T04:47:26.664Z,66.48
2018-02-12T04:48:27.125Z,66.35
2018-02-12T04:49:27.592Z,66.24
2018-02-12T04:50:28.059Z,66.32
2018-02-12T04:52:28.990Z,66.11
2018-02-12T04:54:29.917Z,65.90
2018-02-12T04:55:30.386Z,65.83
2018-02-12T04:56:30.902Z,65.75
2018-02-12T04:57:31.318Z,65.65
2018-02-12T04:58:31.779Z,65.69
2018-02-12T04:59:32.249Z,65.49
2018-02-12T05:00:32.713Z,65.41
2018-02-12T05:01:33.178Z,65.40
2018-02-12T05:03:34.111Z,65.30
2018-02-12T05:04:34.572Z,65.30
2018-02-12T05:05:35.042Z,65.30
2018-02-12T05:06:47.647Z,65.22
2018-02-12T05:07:35.972Z,65.19
2018-02-12T05:08:36.440Z,65.16
2018-02-12T05:10:37.366Z,65.19
2018-02-12T05:11:37.885Z,65.06
2018-02-12T05:12:38.304Z,65.19
2018-02-12T05:13:38.765Z,65.10
2018-02-12T05:14:39.231Z,65.21
2018-02-12T05:15:39.695Z,65.08
2018-02-12T05:16:40.159Z,65.07
2018-02-12T05:17:40.627Z,65.18
2018-02-12T05:18:41.093Z,65.10
2018-02-12T05:19:41.556Z,65.15
2018-02-12T05:20:42.021Z,65.20
2018-02-12T05:21:42.490Z,65.36
2018-02-12T05:23:43.422Z,65.36
2018-02-12T05:24:43.885Z,65.45
2018-02-12T05:25:44.346Z,65.48
2018-02-12T05:26:56.654Z,65.45
2018-02-12T05:27:45.281Z,65.51
2018-02-12T05:28:45.748Z,65.58
2018-02-12T05:29:46.211Z,65.56
2018-02-12T05:30:46.677Z,65.58
2018-02-12T05:31:58.676Z,65.68
2018-02-12T05:32:47.604Z,65.74
2018-02-12T05:33:48.074Z,65.91
2018-02-12T05:34:48.539Z,65.99
2018-02-12T05:35:49.004Z,66.04
2018-02-12T05:36:49.522Z,66.01
2018-02-12T05:37:49.935Z,66.01
2018-02-12T05:38:50.395Z,65.83
2018-02-12T05:39:50.866Z,65.76
2018-02-12T05:40:51.331Z,65.81
2018-02-12T05:41:51.850Z,65.75
2018-02-12T05:42:52.262Z,66.06
2018-02-12T05:43:52.727Z,66.19
2018-02-12T05:44:53.193Z,66.37
2018-02-12T05:45:53.658Z,66.32
2018-02-12T05:46:54.177Z,66.24
2018-02-12T05:47:54.588Z,66.31
2018-02-12T05:48:55.051Z,66.23
2018-02-12T05:49:55.520Z,66.21
2018-02-12T05:50:55.983Z,66.16
2018-02-12T05:51:56.500Z,66.08
2018-02-12T05:52:56.915Z,65.95
2018-02-12T05:53:57.380Z,65.89
2018-02-12T05:54:57.846Z,65.81
2018-02-12T05:56:58.827Z,65.66
2018-02-12T05:57:59.240Z,65.63
2018-02-12T05:58:59.707Z,65.61
2018-02-12T06:00:00.369Z,65.53
2018-02-12T06:01:00.637Z,65.50
2018-02-12T06:02:01.153Z,65.50
2018-02-12T06:03:01.563Z,65.50
2018-02-12T06:04:02.033Z,65.60
2018-02-12T06:05:02.497Z,65.68
2018-02-12T06:06:02.958Z,65.83
2018-02-12T06:07:03.479Z,65.91
2018-02-12T06:08:03.895Z,65.93
2018-02-12T06:09:04.359Z,66.62
2018-02-12T06:10:04.824Z,66.70
2018-02-12T06:11:05.291Z,66.98
2018-02-12T06:12:05.804Z,66.98
2018-02-12T06:13:06.221Z,67.54
2018-02-12T06:14:06.686Z,67.66
2018-02-12T06:16:07.615Z,68.14
2018-02-12T06:18:08.579Z,68.37
2018-02-12T06:19:09.012Z,68.72
2018-02-12T06:20:09.475Z,68.92
2018-02-12T06:21:09.941Z,68.82
2018-02-12T06:22:10.405Z,68.88
2018-02-12T06:23:10.871Z,68.75
2018-02-12T06:24:11.344Z,68.78
2018-02-12T06:25:11.801Z,68.73
2018-02-12T06:26:12.266Z,68.68
2018-02-12T06:27:24.732Z,68.68
2018-02-12T06:28:13.199Z,68.60
2018-02-12T06:29:13.658Z,68.48
2018-02-12T06:30:14.127Z,68.48
2018-02-12T06:31:14.592Z,68.40
2018-02-12T06:32:15.107Z,68.40
2018-02-12T06:33:15.521Z,68.43
2018-02-12T06:34:15.984Z,68.45
2018-02-12T06:35:16.451Z,68.57
2018-02-12T06:36:16.917Z,68.67
2018-02-12T06:37:28.716Z,68.72
2018-02-12T06:38:17.850Z,68.74
2018-02-12T06:39:18.313Z,68.90
2018-02-12T06:40:18.787Z,69.00
2018-02-12T06:41:19.238Z,69.12
2018-02-12T06:44:20.638Z,69.32
2018-02-12T06:45:21.104Z,69.45
2018-02-12T06:46:21.572Z,69.40
2018-02-12T06:47:22.037Z,69.44
2018-02-12T06:48:22.499Z,69.50
2018-02-12T06:49:22.959Z,69.42
2018-02-12T06:50:23.430Z,69.42
2018-02-12T06:51:23.895Z,69.47
2018-02-12T06:52:24.409Z,69.45
2018-02-12T06:53:24.824Z,69.57
2018-02-12T06:54:25.285Z,69.67
2018-02-12T06:55:25.756Z,69.60
2018-02-12T06:56:26.257Z,69.47
2018-02-12T06:58:27.152Z,69.40
2018-02-12T06:59:27.616Z,69.35
2018-02-12T07:00:28.076Z,69.44
2018-02-12T07:01:28.546Z,69.44
2018-02-12T07:03:29.526Z,69.35
2018-02-12T07:04:29.936Z,69.64
2018-02-12T07:05:30.410Z,70.14
2018-02-12T07:06:30.872Z,70.24
2018-02-12T07:07:31.342Z,70.44
2018-02-12T07:08:31.801Z,70.53
2018-02-12T07:09:32.270Z,70.71
2018-02-12T07:10:32.735Z,70.98
2018-02-12T07:11:33.198Z,70.61
2018-02-12T07:12:33.662Z,70.76
2018-02-12T07:13:34.125Z,70.93
2018-02-12T07:14:34.593Z,71.03
2018-02-12T07:15:35.061Z,71.10
2018-02-12T07:16:35.523Z,71.20
2018-02-12T07:17:35.983Z,71.15
2018-02-12T07:18:36.503Z,71.08
2018-02-12T07:19:36.918Z,71.15
2018-02-12T07:20:37.384Z,71.33
2018-02-12T07:21:37.844Z,71.35
2018-02-12T07:23:38.831Z,71.15
2018-02-12T07:24:39.243Z,71.40
2018-02-12T07:26:40.173Z,71.36
2018-02-12T07:27:40.640Z,71.45
2018-02-12T07:29:41.568Z,71.79
2018-02-12T07:30:42.037Z,71.87
2018-02-12T07:31:42.500Z,72.11
2018-02-12T07:32:42.966Z,72.02
2018-02-12T07:33:43.480Z,72.04
2018-02-12T07:34:43.890Z,72.09
2018-02-12T07:35:44.359Z,72.09
2018-02-12T07:36:44.828Z,72.00
2018-02-12T07:37:45.289Z,72.19
2018-02-12T07:38:45.805Z,72.29
2018-02-12T07:39:46.220Z,72.05
2018-02-12T07:40:46.687Z,72.02
2018-02-12T07:41:47.150Z,71.90
2018-02-12T07:42:47.653Z,72.07
2018-02-12T07:43:48.081Z,72.15
2018-02-12T07:44:48.549Z,72.20
2018-02-12T07:45:49.010Z,72.15
2018-02-12T07:46:49.470Z,72.15
2018-02-12T07:47:49.939Z,72.29
2018-02-12T07:48:50.454Z,72.22
2018-02-12T07:50:51.335Z,72.20
2018-02-12T07:51:51.800Z,72.13
2018-02-12T07:52:52.259Z,72.10
2018-02-12T07:53:52.824Z,72.30
2018-02-12T07:54:53.196Z,72.45
2018-02-12T07:55:53.662Z,72.23
2018-02-12T07:56:54.124Z,72.20
2018-02-12T07:57:54.592Z,72.23
2018-02-12T07:58:55.102Z,72.35
2018-02-12T07:59:55.521Z,72.40
2018-02-12T08:00:56.326Z,72.30
2018-02-12T08:01:56.454Z,72.23
2018-02-12T08:02:56.912Z,72.31
2018-02-12T08:03:57.383Z,72.33
2018-02-12T08:04:57.845Z,72.43
2018-02-12T08:05:58.313Z,72.50
2018-02-12T08:06:58.778Z,72.50
2018-02-12T08:07:59.244Z,72.36
2018-02-12T08:08:59.706Z,72.24
2018-02-12T08:10:00.171Z,72.22
2018-02-12T08:11:00.637Z,72.13
2018-02-12T08:12:01.126Z,72.10
2018-02-12T08:13:01.566Z,71.96
2018-02-12T08:15:02.493Z,72.20
2018-02-12T08:16:03.011Z,72.25
2018-02-12T08:17:03.427Z,72.28
2018-02-12T08:18:03.892Z,72.13
2018-02-12T08:20:04.817Z,72.53
2018-02-12T08:21:05.286Z,72.44
2018-02-12T08:22:05.752Z,72.58
2018-02-12T08:23:06.221Z,72.49
2018-02-12T08:24:06.735Z,72.54
2018-02-12T08:25:07.152Z,72.64
2018-02-12T08:26:07.612Z,72.89
2018-02-12T08:27:08.075Z,72.96
2018-02-12T08:28:08.543Z,72.77
2018-02-12T08:29:09.012Z,72.53
2018-02-12T08:30:09.476Z,72.46
2018-02-12T08:31:09.944Z,72.53
2018-02-12T08:32:10.405Z,72.66
2018-02-12T08:33:10.870Z,72.56
2018-02-12T08:34:11.388Z,72.27
2018-02-12T08:35:11.801Z,72.47
2018-02-12T08:36:12.262Z,72.43
2018-02-12T08:37:12.733Z,72.24
2018-02-12T08:38:13.197Z,72.16
2018-02-12T08:39:13.711Z,72.14
2018-02-12T08:40:14.127Z,72.14
2018-02-12T08:41:14.591Z,72.00
2018-02-12T08:42:15.058Z,71.95
2018-02-12T08:43:15.523Z,71.81
2018-02-12T08:44:16.035Z,72.10
2018-02-12T08:45:16.454Z,71.86
2018-02-12T08:46:17.259Z,71.77
2018-02-12T08:47:17.384Z,71.89
2018-02-12T08:48:17.849Z,72.16
2018-02-12T08:49:18.364Z,71.97
2018-02-12T08:50:18.816Z,71.97
2018-02-12T08:51:19.247Z,72.17
2018-02-12T08:52:19.713Z,71.88
2018-02-12T08:53:20.175Z,71.63
2018-02-12T08:54:20.637Z,71.63
2018-02-12T08:55:21.106Z,71.69
2018-02-12T08:56:21.576Z,71.84
2018-02-12T08:57:22.036Z,71.89
2018-02-12T08:58:22.500Z,71.89
2018-02-12T08:59:22.968Z,71.99
2018-02-12T09:00:23.429Z,71.94
2018-02-12T09:01:23.898Z,71.85
2018-02-12T09:02:24.376Z,71.97
2018-02-12T09:03:24.837Z,71.88
2018-02-12T09:04:25.304Z,71.78
2018-02-12T09:05:25.769Z,71.76
2018-02-12T09:06:26.237Z,71.61
2018-02-12T09:07:26.700Z,71.52
2018-02-12T09:08:27.158Z,71.45
2018-02-12T09:09:27.672Z,71.38
2018-02-12T09:10:28.088Z,71.25
2018-02-12T09:11:28.554Z,71.48
2018-02-12T09:12:29.019Z,71.29
2018-02-12T09:13:29.485Z,71.39
2018-02-12T09:14:29.996Z,71.34
2018-02-12T09:15:30.416Z,71.24
2018-02-12T09:16:30.910Z,71.30
2018-02-12T09:17:31.346Z,71.20
2018-02-12T09:18:31.820Z,71.21
2018-02-12T09:19:32.280Z,71.11
2018-02-12T09:20:32.748Z,71.02
2018-02-12T09:21:33.204Z,71.02
2018-02-12T09:22:33.718Z,70.90
2018-02-12T09:23:34.140Z,70.83
2018-02-12T09:24:34.658Z,70.83
2018-02-12T09:25:35.067Z,70.71
2018-02-12T09:27:36.008Z,70.81
2018-02-12T09:28:36.469Z,70.74
2018-02-12T09:29:36.987Z,70.97
2018-02-12T09:30:37.395Z,71.09
2018-02-12T09:33:38.798Z,71.10
2018-02-12T09:34:39.263Z,71.13
2018-02-12T09:35:39.728Z,71.42
2018-02-12T09:37:40.654Z,71.13
2018-02-12T09:38:41.126Z,71.08
2018-02-12T09:39:41.645Z,71.18
2018-02-12T09:40:42.057Z,71.06
2018-02-12T09:41:42.519Z,71.01
2018-02-12T09:42:42.988Z,71.31
2018-02-12T09:43:43.456Z,71.16
2018-02-12T09:44:43.978Z,71.45
2018-02-12T09:45:44.386Z,71.34
2018-02-12T09:46:44.850Z,71.31
2018-02-12T09:47:45.317Z,71.21
2018-02-12T09:48:45.778Z,71.51
2018-02-12T09:49:46.298Z,71.32
2018-02-12T09:51:47.179Z,71.34
2018-02-12T09:52:47.646Z,71.27
2018-02-12T09:53:48.110Z,71.42
2018-02-12T09:54:48.573Z,71.42
2018-02-12T09:55:49.048Z,71.52
2018-02-12T09:56:49.510Z,71.69
2018-02-12T09:57:49.974Z,71.67
2018-02-12T09:58:50.440Z,71.43
2018-02-12T09:59:50.957Z,71.16
2018-02-12T10:00:51.372Z,71.01
2018-02-12T10:01:51.835Z,70.77
2018-02-12T10:02:52.303Z,70.65
2018-02-12T10:03:52.772Z,70.52
2018-02-12T10:04:53.285Z,70.30
2018-02-12T10:05:53.700Z,70.13
2018-02-12T10:06:54.172Z,69.99
2018-02-12T10:07:54.627Z,70.02
2018-02-12T10:08:55.100Z,69.99
2018-02-12T10:09:55.564Z,70.08
2018-02-12T10:10:56.032Z,70.05
2018-02-12T10:11:56.492Z,70.14
2018-02-12T10:12:56.965Z,70.29
2018-02-12T10:13:57.429Z,70.49
2018-02-12T10:15:09.935Z,70.48
2018-02-12T10:15:58.361Z,70.36
2018-02-12T10:16:58.828Z,70.11
2018-02-12T10:17:59.294Z,69.97
2018-02-12T10:18:59.756Z,70.10
2018-02-12T10:20:00.264Z,69.98
2018-02-12T10:21:00.693Z,69.78
2018-02-12T10:22:01.157Z,69.64
2018-02-12T10:23:03.973Z,69.49
2018-02-12T10:24:02.092Z,69.29
2018-02-12T10:25:02.557Z,69.17
2018-02-12T10:26:03.023Z,69.05
2018-02-12T10:27:03.490Z,69.00
2018-02-12T10:28:03.957Z,68.95
2018-02-12T10:29:04.422Z,68.98
2018-02-12T10:30:04.882Z,69.14
2018-02-12T10:31:05.697Z,69.06
2018-02-12T10:32:05.821Z,68.96
2018-02-12T10:34:06.753Z,68.79
2018-02-12T10:35:07.271Z,68.82
2018-02-12T10:36:07.686Z,68.85
2018-02-12T10:37:08.156Z,68.85
2018-02-12T10:38:08.620Z,68.75
2018-02-12T10:40:09.603Z,68.55
2018-02-12T10:41:10.017Z,68.45
2018-02-12T10:42:10.485Z,68.45
2018-02-12T10:43:10.952Z,68.33
2018-02-12T10:44:11.419Z,68.25
2018-02-12T10:45:11.885Z,68.15
2018-02-12T10:46:12.351Z,68.00
2018-02-12T10:47:12.819Z,67.90
2018-02-12T10:48:13.281Z,67.78
2018-02-12T10:49:13.752Z,67.60
2018-02-12T10:50:14.217Z,67.45
2018-02-12T10:51:14.684Z,67.24
2018-02-12T10:52:15.489Z,67.02
2018-02-12T10:53:15.618Z,66.87
2018-02-12T10:54:16.085Z,66.71
2018-02-12T10:56:17.018Z,66.54
2018-02-12T10:57:17.487Z,66.33
2018-02-12T10:58:17.950Z,66.23
2018-02-12T10:59:18.413Z,66.21
2018-02-12T11:00:18.885Z,66.18
2018-02-12T11:02:19.817Z,66.06
2018-02-12T11:03:20.280Z,65.93
2018-02-12T11:04:20.750Z,65.85
2018-02-12T11:05:21.218Z,65.78
2018-02-12T11:07:22.195Z,65.63
2018-02-12T11:08:22.624Z,65.45
2018-02-12T11:09:23.087Z,65.32
2018-02-12T11:10:23.552Z,65.22
2018-02-12T11:11:24.020Z,65.14
2018-02-12T11:12:24.513Z,65.14
2018-02-12T11:13:24.954Z,65.12
2018-02-12T11:14:25.419Z,65.04
2018-02-12T11:15:25.881Z,65.02
2018-02-12T11:16:26.354Z,64.99
2018-02-12T11:17:26.873Z,64.95
2018-02-12T11:18:27.288Z,64.94
2018-02-12T11:19:27.755Z,64.90
2018-02-12T11:20:28.219Z,64.90
2018-02-12T11:21:28.689Z,64.87
2018-02-12T11:22:29.206Z,64.87
2018-02-12T11:23:29.623Z,64.87
2018-02-12T11:24:30.091Z,64.83
2018-02-12T11:25:30.557Z,64.88
2018-02-12T11:26:31.022Z,65.01
2018-02-12T11:27:31.489Z,64.96
2018-02-12T11:28:31.959Z,64.83
2018-02-12T11:29:32.421Z,64.78
2018-02-12T11:30:32.891Z,64.78
2018-02-12T11:31:33.359Z,64.79
2018-02-12T11:32:33.827Z,64.74
2018-02-12T11:33:34.297Z,64.77
2018-02-12T11:35:35.228Z,64.77
2018-02-12T11:36:35.690Z,64.72
2018-02-12T11:37:47.996Z,64.72
2018-02-12T11:38:36.631Z,64.54
2018-02-12T11:39:37.092Z,64.46
2018-02-12T11:40:37.564Z,64.44
2018-02-12T11:41:38.031Z,64.39
2018-02-12T11:42:38.548Z,64.42
2018-02-12T11:43:38.965Z,64.47
2018-02-12T11:44:39.434Z,64.45
2018-02-12T11:45:39.901Z,64.45
2018-02-12T11:46:40.367Z,64.51
2018-02-12T11:47:40.837Z,64.66
2018-02-12T11:48:41.301Z,64.66
2018-02-12T11:49:41.770Z,64.64
2018-02-12T11:50:42.231Z,64.62
2018-02-12T11:51:42.704Z,64.52
2018-02-12T11:53:43.639Z,64.31
2018-02-12T11:54:44.105Z,64.20
2018-02-12T11:55:44.573Z,64.13
2018-02-12T11:56:45.041Z,64.10
2018-02-12T11:57:57.013Z,64.13
2018-02-12T11:58:45.971Z,64.13
2018-02-12T11:59:46.443Z,64.18
2018-02-12T12:00:46.910Z,64.13
2018-02-12T12:01:47.378Z,64.21
2018-02-12T12:02:47.896Z,64.21
2018-02-12T12:04:48.780Z,64.19
2018-02-12T12:05:49.244Z,64.19
2018-02-12T12:06:49.715Z,64.27
2018-02-12T12:08:02.023Z,64.33
2018-02-12T12:08:50.650Z,64.41
2018-02-12T12:09:51.114Z,64.41
2018-02-12T12:11:52.053Z,64.46
2018-02-12T12:13:52.992Z,64.52
2018-02-12T12:14:53.455Z,64.62
2018-02-12T12:15:53.936Z,64.62
2018-02-12T12:16:54.387Z,64.73
2018-02-12T12:17:54.858Z,64.78
2018-02-12T12:18:55.324Z,64.97
2018-02-12T12:19:55.793Z,64.99
2018-02-12T12:20:56.255Z,65.12
2018-02-12T12:21:56.727Z,65.10
2018-02-12T12:22:57.194Z,65.13
2018-02-12T12:23:57.712Z,65.18
2018-02-12T12:24:58.130Z,65.23
2018-02-12T12:25:58.597Z,65.26
2018-02-12T12:26:59.059Z,65.34
2018-02-12T12:27:59.533Z,65.39
2018-02-12T12:29:00.051Z,65.44
2018-02-12T12:31:00.929Z,65.47
2018-02-12T12:32:01.402Z,65.52
2018-02-12T12:33:01.871Z,65.55
2018-02-12T12:35:02.801Z,65.66
2018-02-12T12:36:03.268Z,65.68
2018-02-12T12:37:03.741Z,65.71
2018-02-12T12:38:04.208Z,65.74
2018-02-12T12:39:04.727Z,65.74
2018-02-12T12:40:05.138Z,65.89
2018-02-12T12:43:06.555Z,65.95
2018-02-12T12:44:07.063Z,66.02
2018-02-12T12:45:07.484Z,66.05
2018-02-12T12:46:07.951Z,66.05
2018-02-12T12:47:08.411Z,66.13
2018-02-12T12:48:08.886Z,66.21
2018-02-12T12:49:09.352Z,66.16
2018-02-12T12:50:09.819Z,66.26
2018-02-12T12:51:10.287Z,66.34
2018-02-12T12:52:10.756Z,66.29
2018-02-12T12:53:11.223Z,66.27
2018-02-12T12:54:11.688Z,66.32
2018-02-12T12:55:12.157Z,66.34
2018-02-12T12:56:12.966Z,66.58
2018-02-12T12:57:13.093Z,66.63
2018-02-12T12:58:13.563Z,66.74
2018-02-12T12:59:14.031Z,66.63
2018-02-12T13:00:14.497Z,66.66
2018-02-12T13:01:14.961Z,66.68
2018-02-12T13:02:15.433Z,66.81
2018-02-12T13:03:15.899Z,66.76
2018-02-12T13:04:16.419Z,66.82
2018-02-12T13:05:16.836Z,66.87
2018-02-12T13:06:17.353Z,66.92
2018-02-12T13:07:17.770Z,66.97
2018-02-12T13:08:18.240Z,67.02
2018-02-12T13:09:18.706Z,67.15
2018-02-12T13:10:19.170Z,67.10
2018-02-12T13:11:19.642Z,67.18
2018-02-12T13:13:20.577Z,67.21
2018-02-12T13:14:21.097Z,67.18
2018-02-12T13:15:21.513Z,67.13
2018-02-12T13:16:21.981Z,67.21
2018-02-12T13:17:22.449Z,67.24
2018-02-12T13:18:22.913Z,67.34
2018-02-12T13:19:23.434Z,67.26
2018-02-12T13:20:23.852Z,67.24
2018-02-12T13:21:24.321Z,67.16
2018-02-12T13:22:24.788Z,67.37
2018-02-12T13:23:25.256Z,67.24
2018-02-12T13:24:37.107Z,67.32
2018-02-12T13:25:26.189Z,67.32
2018-02-12T13:26:26.660Z,67.50
2018-02-12T13:27:27.128Z,67.52
2018-02-12T13:28:27.596Z,67.53
2018-02-12T13:29:28.115Z,67.58
2018-02-12T13:30:28.528Z,67.50
2018-02-12T13:32:29.466Z,67.55
2018-02-12T13:33:29.937Z,67.56
2018-02-12T13:34:30.451Z,67.58
2018-02-12T13:36:31.339Z,67.69
2018-02-12T13:37:31.808Z,67.64
2018-02-12T13:38:32.275Z,67.72
2018-02-12T13:39:32.743Z,67.74
2018-02-12T13:41:33.675Z,67.77
2018-02-12T13:42:34.147Z,67.72
2018-02-12T13:43:34.615Z,67.85
2018-02-12T13:45:35.602Z,67.90
2018-02-12T13:46:36.019Z,67.80
2018-02-12T13:47:36.488Z,67.83
2018-02-12T13:48:36.952Z,67.85
2018-02-12T13:49:37.424Z,67.96
2018-02-12T13:50:37.943Z,68.01
2018-02-12T13:51:38.359Z,67.93
2018-02-12T13:52:38.826Z,67.96
2018-02-12T13:53:39.300Z,67.96
2018-02-12T13:54:39.765Z,68.09
2018-02-12T13:55:40.284Z,68.12
2018-02-12T13:56:40.702Z,68.27
2018-02-12T13:57:41.171Z,68.14
2018-02-12T13:58:41.638Z,68.16
2018-02-12T13:59:42.105Z,68.19
2018-02-12T14:01:43.045Z,68.22
2018-02-12T14:02:43.511Z,68.19
2018-02-12T14:03:43.978Z,68.22
2018-02-12T14:04:44.447Z,68.27
2018-02-12T14:05:44.914Z,68.22
2018-02-12T14:06:45.383Z,68.23
2018-02-12T14:07:45.849Z,68.27
2018-02-12T14:08:46.319Z,68.27
2018-02-12T14:09:46.787Z,68.40
2018-02-12T14:10:47.306Z,68.35